Time;durP1;ratioP1;P1;durP2;ratioP2;P2;SDS_P1;SDS_P2;PMS_P1;PMS_P2;Temp;Humidity;BMP_temperature;BMP_pressure;BME280_temperature;BME280_humidity;BME280_pressure;Samples;Min_cycle;Max_cycle;Signal;HPM_P1;HPM_P2
2023/01/05 00:01:07;;;;;;;8.25;1.02;;;12.70;99.90;;;11.90;100.00;102528.72;3978663;29;20042;-77
2023/01/05 00:03:08;;;;;;;4.95;1.08;;;12.70;99.90;;;11.89;100.00;102533.19;3978292;29;20620;-76
2023/01/05 00:05:09;;;;;;;7.25;1.38;;;12.70;99.90;;;11.93;100.00;102534.63;3984102;29;20043;-76
2023/01/05 00:07:10;;;;;;;5.40;1.42;;;12.70;99.90;;;11.88;100.00;102530.66;3979520;29;20031;-76
2023/01/05 00:09:15;;;;;;;9.13;1.70;;;12.70;99.90;;;11.89;100.00;102533.19;3983616;29;20500;-76
2023/01/05 00:23:14;;;;;;;5.63;1.25;;;12.60;99.90;;;11.79;100.00;102526.09;3981753;29;20487;-77
2023/01/05 00:25:19;;;;;;;3.83;1.30;;;12.60;99.90;;;11.84;100.00;102538.00;3991094;29;20036;-77
2023/01/05 00:27:20;;;;;;;4.70;1.13;;;12.60;99.90;;;11.78;100.00;102530.53;3982284;29;20531;-77
2023/01/05 00:29:21;;;;;;;5.82;1.80;;;12.60;99.90;;;11.79;100.00;102532.25;3983234;29;20030;-76
2023/01/05 00:31:22;;;;;;;2.72;0.77;;;12.60;99.90;;;11.76;100.00;102529.84;3982130;29;20424;-75
2023/01/05 00:33:23;;;;;;;5.00;1.27;;;12.60;99.90;;;11.78;100.00;102527.91;3982529;29;20031;-77
2023/01/05 00:35:24;;;;;;;2.22;0.65;;;12.60;99.90;;;11.77;100.00;102531.50;3990750;29;20035;-76
2023/01/05 00:37:29;;;;;;;3.67;1.42;;;12.50;99.90;;;11.77;100.00;102528.03;3982072;29;20031;-76
2023/01/05 00:39:30;;;;;;;3.38;1.25;;;12.50;99.90;;;11.76;100.00;102528.97;3983345;29;20043;-76
2023/01/05 00:41:31;;;;;;;1.27;0.50;;;12.50;99.90;;;11.75;100.00;102520.22;3981376;29;20031;-76
2023/01/05 00:43:32;;;;;;;1.92;0.50;;;12.50;99.90;;;11.75;100.00;102530.78;3982554;29;20034;-76
2023/01/05 00:45:33;;;;;;;2.35;0.52;;;12.60;99.90;;;11.75;100.00;102522.84;3987286;29;20035;-76
2023/01/05 00:47:34;;;;;;;4.80;0.50;;;12.60;99.90;;;11.75;100.00;102520.22;3982290;29;20037;-76
2023/01/05 00:49:35;;;;;;;1.48;0.55;;;12.60;99.90;;;11.75;100.00;102517.56;3975229;29;20569;-76
2023/01/05 00:51:36;;;;;;;2.33;0.57;;;12.50;99.90;;;11.75;100.00;102522.84;3995752;29;20034;-76
2023/01/05 00:53:37;;;;;;;1.38;0.77;;;12.60;99.90;;;11.75;100.00;102522.00;3982781;29;20080;-76
2023/01/05 00:55:37;;;;;;;3.80;0.75;;;12.50;99.90;;;11.71;100.00;102517.94;3983391;29;20039;-76
2023/01/05 00:57:38;;;;;;;2.05;0.60;;;12.50;99.90;;;11.71;100.00;102521.41;3982296;29;20491;-76
2023/01/05 00:59:40;;;;;;;2.40;0.93;;;12.50;99.90;;;11.68;100.00;102511.03;3988439;29;20115;-76
2023/01/05 01:01:44;;;;;;;2.78;1.15;;;12.50;99.90;;;11.71;100.00;102523.22;3981054;29;20034;-76
2023/01/05 01:03:45;;;;;;;1.40;0.60;;;12.50;99.90;;;11.77;100.00;102526.22;3982035;29;20031;-76
2023/01/05 01:05:54;;;;;;;1.42;0.40;;;12.50;99.90;;;11.76;100.00;102516.59;3982249;29;20050;-76
2023/01/05 01:07:55;;;;;;;4.32;0.63;;;12.50;99.90;;;11.71;100.00;102507.38;3980959;29;20037;-76
2023/01/05 01:09:56;;;;;;;1.88;0.47;;;12.50;99.90;;;11.74;100.00;102517.69;3999426;29;20026;-76
2023/01/05 01:11:57;;;;;;;2.80;0.75;;;12.50;99.90;;;11.72;100.00;102519.59;3980909;29;20038;-76
2023/01/05 01:13:58;;;;;;;1.27;0.60;;;12.50;99.90;;;11.69;100.00;102504.78;3986199;29;20082;-76
2023/01/05 01:16:11;;;;;;;2.45;0.63;;;12.50;99.90;;;11.76;100.00;102521.91;3988888;29;20043;-76
2023/01/05 01:18:12;;;;;;;3.47;0.60;;;12.50;99.90;;;11.74;100.00;102513.22;3983305;29;20118;-76
2023/01/05 01:20:13;;;;;;;1.77;0.43;;;12.50;99.90;;;11.74;100.00;102518.50;3982057;29;20031;-76
2023/01/05 01:22:14;;;;;;;3.58;0.60;;;12.50;99.90;;;11.75;100.00;102519.34;3981760;29;20050;-76
2023/01/05 01:24:18;;;;;;;2.55;0.60;;;12.50;99.90;;;11.75;100.00;102517.56;3988016;29;20490;-76
2023/01/05 01:26:19;;;;;;;2.50;0.60;;;12.50;99.90;;;11.73;100.00;102506.28;3983120;29;20039;-77
2023/01/05 01:28:20;;;;;;;4.75;1.08;;;12.50;99.90;;;11.77;100.00;102517.47;3985856;29;20026;-76
2023/01/05 01:30:21;;;;;;;3.80;1.00;;;12.50;99.90;;;11.79;100.00;102516.38;4004437;29;20019;-76
2023/01/05 01:32:23;;;;;;;6.75;0.88;;;12.50;99.90;;;11.73;100.00;102495.69;3995353;29;20058;-76
2023/01/05 01:34:24;;;;;;;2.85;0.73;;;12.50;99.90;;;11.77;100.00;102507.69;4002370;29;20018;-76
2023/01/05 01:36:25;;;;;;;2.50;0.70;;;12.50;99.90;;;11.75;100.00;102509.63;3981570;29;20046;-77
2023/01/05 01:38:26;;;;;;;3.08;0.90;;;12.60;99.90;;;11.76;100.00;102508.69;3981061;29;20087;-76
2023/01/05 01:40:27;;;;;;;2.60;0.85;;;12.50;99.90;;;11.75;100.00;102512.28;3981694;29;20035;-76
2023/01/05 01:42:28;;;;;;;4.63;0.98;;;12.50;99.90;;;11.73;100.00;102505.44;3981464;29;20034;-76
2023/01/05 01:44:54;;;;;;;6.28;0.70;;;12.50;99.90;;;11.77;100.00;102504.25;3985025;29;20464;-76
2023/01/05 01:46:55;;;;;;;2.08;0.73;;;12.50;99.90;;;11.77;100.00;102513.00;3980435;29;20462;-76
2023/01/05 01:49:07;;;;;;;2.63;0.95;;;12.50;99.90;;;11.76;100.00;102510.47;3988562;29;20118;-76
2023/01/05 01:51:43;;;;;;;2.85;0.63;;;12.50;99.90;;;11.76;100.00;102506.03;3980451;29;20511;-76
2023/01/05 01:53:52;;;;;;;3.88;0.85;;;12.50;99.90;;;11.78;100.00;102519.97;3982332;29;20126;-76
2023/01/05 01:55:54;;;;;;;3.45;1.30;;;12.50;99.90;;;11.77;100.00;102507.69;3983219;29;20035;-76
2023/01/05 01:57:56;;;;;;;4.15;1.30;;;12.60;99.90;;;11.78;100.00;102509.38;3989251;29;20431;-76
2023/01/05 02:00:01;;;;;;;3.97;1.38;;;12.60;99.90;;;11.80;100.00;102511.94;3984995;29;20035;-76
2023/01/05 02:02:02;;;;;;;6.22;1.70;;;12.50;99.90;;;11.76;100.00;102505.19;3981223;29;20095;-76
2023/01/05 02:04:03;;;;;;;7.55;1.77;;;12.60;99.90;;;11.80;100.00;102510.09;3982109;29;20080;-76
2023/01/05 02:06:05;;;;;;;6.63;1.48;;;12.60;99.90;;;11.79;100.00;102505.78;3980617;29;20039;-76
2023/01/05 02:08:12;;;;;;;7.65;2.47;;;12.60;99.90;;;11.77;100.00;102502.41;3980546;29;20031;-76
2023/01/05 02:10:17;;;;;;;5.75;1.70;;;12.60;99.90;;;11.78;100.00;102504.09;3996665;29;20075;-77
2023/01/05 02:12:32;;;;;;;8.77;1.58;;;12.60;99.90;;;11.81;100.00;102503.84;3995172;29;20475;-76
2023/01/05 02:14:38;;;;;;;;;;;12.60;99.90;;;11.76;100.00;102506.03;3995504;29;20502;-76
2023/01/05 02:17:24;;;;;;;7.88;2.10;;;12.60;99.90;;;11.82;100.00;102505.56;3983174;29;20408;-76
2023/01/05 02:20:02;;;;;;;9.77;2.45;;;12.60;99.90;;;11.78;100.00;102497.97;3976095;29;20055;-76
2023/01/05 02:22:17;;;;;;;7.47;2.13;;;12.60;99.90;;;11.79;100.00;102500.50;3970771;29;20039;-76
2023/01/05 02:24:45;;;;;;;10.27;2.55;;;12.60;99.90;;;11.80;100.00;102504.81;3986847;29;20030;-76
2023/01/05 02:26:54;;;;;;;10.80;2.50;;;12.60;99.90;;;11.80;100.00;102507.47;3969639;29;20037;-76
2023/01/05 02:29:32;;;;;;;11.13;2.35;;;12.60;99.90;;;11.76;100.00;102511.31;3987555;29;20495;-76
2023/01/05 02:31:40;;;;;;;12.65;2.75;;;12.50;99.90;;;11.79;100.00;102511.09;3968813;29;20043;-76
2023/01/05 02:34:06;;;;;;;17.00;3.15;;;12.60;99.90;;;11.84;100.00;102511.56;3981823;29;20042;-76
2023/01/05 02:36:49;;;;;;;12.88;3.03;;;12.60;99.90;;;11.84;100.00;102511.56;3996652;29;20052;-76
2023/01/05 02:39:18;;;;;;;11.48;2.75;;;12.60;99.90;;;11.83;100.00;102517.78;3981201;29;20038;-76
2023/01/05 02:41:30;;;;;;;19.25;4.28;;;12.60;99.90;;;11.82;100.00;102515.28;3982823;29;20045;-76
2023/01/05 02:43:32;;;;;;;11.98;3.00;;;12.60;99.90;;;11.81;100.00;102511.78;3994308;29;20038;-76
2023/01/05 02:45:33;;;;;;;19.38;3.80;;;12.60;99.90;;;11.82;100.00;102515.28;3994662;29;20497;-76
2023/01/05 02:47:44;;;;;;;16.83;2.72;;;12.60;99.90;;;11.80;100.00;102511.94;3995874;29;20026;-76
2023/01/05 02:49:45;;;;;;;18.35;3.05;;;12.60;99.90;;;11.80;100.00;102518.03;3989118;29;20030;-76
2023/01/05 02:51:50;;;;;;;17.10;3.30;;;12.60;99.90;;;11.83;100.00;102525.72;3979425;29;20037;-76
2023/01/05 02:54:20;;;;;;;14.25;3.33;;;12.60;99.90;;;11.85;100.00;102528.25;3981566;29;20399;-76
2023/01/05 02:56:32;;;;;;;19.77;4.13;;;12.60;99.90;;;11.83;100.00;102523.09;3972517;29;20034;-76
2023/01/05 02:58:55;;;;;;;17.13;4.25;;;12.60;99.90;;;11.85;100.00;102521.19;3982916;29;20027;-76
2023/01/05 03:01:07;;;;;;;19.50;4.20;;;12.60;99.90;;;11.83;100.00;102522.22;3994838;29;20057;-76
2023/01/05 03:03:34;;;;;;;17.42;2.50;;;12.60;99.90;;;11.83;100.00;102519.59;3979894;29;20031;-76
2023/01/05 03:05:43;;;;;;;15.27;3.17;;;12.60;99.90;;;11.87;100.00;102519.25;3993846;29;20114;-76
2023/01/05 03:07:45;;;;;;;15.70;3.20;;;12.60;99.90;;;11.84;100.00;102526.56;3994176;29;20109;-76
2023/01/05 03:09:47;;;;;;;15.00;3.05;;;12.60;99.90;;;11.82;100.00;102518.78;3994519;29;20395;-76
2023/01/05 03:14:50;;;;;;;22.67;2.75;;;12.60;99.90;;;11.84;100.00;102508.06;3995824;29;20050;-76
2023/01/05 03:16:54;;;;;;;18.63;2.50;;;12.60;99.90;;;11.86;100.00;102511.41;3994625;29;20034;-76
2023/01/05 03:21:15;;;;;;;14.15;3.45;;;12.60;99.90;;;11.80;100.00;102504.81;3979717;29;19965;-76
2023/01/05 03:35:37;;;;;;;13.18;3.40;;;12.60;99.90;;;11.82;100.00;102508.19;3984928;29;20050;-77
2023/01/05 03:37:52;;;;;;;11.65;2.92;;;12.60;99.90;;;11.81;100.00;102498.56;3979144;29;20117;-76
2023/01/05 03:39:53;;;;;;;15.35;2.83;;;12.60;99.90;;;11.84;100.00;102500.97;3979691;29;20111;-76
2023/01/05 03:41:55;;;;;;;12.90;3.38;;;12.60;99.90;;;11.84;100.00;102503.63;3980484;29;20039;-76
2023/01/05 03:43:57;;;;;;;15.18;2.95;;;12.60;99.90;;;11.82;100.00;102500.25;3981108;29;20129;-76
2023/01/05 03:45:57;;;;;;;14.32;3.40;;;12.60;99.90;;;11.81;100.00;102493.28;3994899;29;20144;-76
2023/01/05 03:47:58;;;;;;;16.15;3.08;;;12.60;99.90;;;11.80;100.00;102490.78;3980374;29;20042;-76
2023/01/05 03:49:59;;;;;;;17.30;3.30;;;12.60;99.90;;;11.80;100.00;102488.94;3987937;29;20031;-76
2023/01/05 03:52:00;;;;;;;10.80;2.70;;;12.60;99.90;;;11.82;100.00;102494.97;3982979;29;20027;-76
2023/01/05 03:54:01;;;;;;;17.70;3.38;;;12.60;99.90;;;11.81;100.00;102490.63;3983717;29;20030;-76
2023/01/05 03:56:02;;;;;;;17.42;2.88;;;12.60;99.90;;;11.83;100.00;102501.94;3982065;29;20550;-76
2023/01/05 03:58:03;;;;;;;14.85;3.05;;;12.60;99.90;;;11.82;100.00;102500.25;3983017;29;20070;-76
2023/01/05 04:00:05;;;;;;;16.35;3.15;;;12.60;99.90;;;11.82;100.00;102508.19;4002980;29;20486;-76
2023/01/05 04:02:06;;;;;;;22.58;4.28;;;12.60;99.90;;;11.81;100.00;102498.56;3983083;29;20062;-76
2023/01/05 04:04:07;;;;;;;18.05;3.50;;;12.60;99.90;;;11.83;100.00;102498.44;3984869;29;20029;-76
2023/01/05 04:06:08;;;;;;;17.17;4.32;;;12.60;99.90;;;11.82;100.00;102497.63;3991010;29;20050;-76
2023/01/05 04:08:09;;;;;;;22.20;4.05;;;12.60;99.90;;;11.76;100.00;102498.09;3981610;29;20031;-76
2023/01/05 04:10:10;;;;;;;22.25;3.33;;;12.60;99.90;;;11.82;100.00;102508.19;3983176;29;20046;-76
2023/01/05 04:12:10;;;;;;;15.88;3.30;;;12.60;99.90;;;11.86;100.00;102496.41;3983074;29;20019;-76
2023/01/05 04:14:11;;;;;;;21.23;3.70;;;12.60;99.90;;;11.88;100.00;102491.00;3984411;29;20034;-76
2023/01/05 04:16:12;;;;;;;20.17;3.28;;;12.60;99.90;;;11.85;100.00;102489.44;4002316;29;20030;-76
2023/01/05 04:18:14;;;;;;;24.67;4.03;;;12.60;99.90;;;11.79;100.00;102482.00;3982809;29;20030;-76
2023/01/05 04:20:15;;;;;;;20.00;4.82;;;12.60;99.90;;;11.82;100.00;102481.75;3993117;29;20117;-76
2023/01/05 04:22:15;;;;;;;22.58;4.15;;;12.60;99.90;;;11.83;100.00;102486.06;3982740;29;20030;-76
2023/01/05 04:24:16;;;;;;;21.88;3.85;;;12.60;99.90;;;11.81;100.00;102477.41;3986527;29;20041;-76
2023/01/05 04:26:17;;;;;;;22.25;4.25;;;12.60;99.90;;;11.82;100.00;102476.47;3985181;29;20034;-76
2023/01/05 04:28:18;;;;;;;20.58;2.90;;;12.60;99.90;;;11.83;100.00;102470.19;3982954;29;20043;-76
2023/01/05 04:30:20;;;;;;;28.55;4.03;;;12.60;99.90;;;11.79;100.00;102467.94;3991917;29;20055;-76
2023/01/05 04:32:21;;;;;;;20.73;4.78;;;12.60;99.90;;;11.84;100.00;102471.03;3982417;29;20062;-76
2023/01/05 04:34:22;;;;;;;19.23;3.13;;;12.60;99.90;;;11.82;100.00;102475.63;3986933;29;20027;-76
2023/01/05 04:36:23;;;;;;;23.35;3.83;;;12.60;99.90;;;11.82;100.00;102468.53;3982571;29;20039;-76
2023/01/05 04:38:24;;;;;;;21.27;3.75;;;12.60;99.90;;;11.80;100.00;102461.69;3983814;29;20519;-76
2023/01/05 04:40:25;;;;;;;18.08;4.22;;;12.60;99.90;;;11.82;100.00;102465.03;3996276;29;20039;-76
2023/01/05 04:42:26;;;;;;;33.08;6.13;;;12.60;99.90;;;11.81;100.00;102469.50;3981416;29;20054;-76
2023/01/05 04:44:26;;;;;;;21.00;5.07;;;12.60;99.90;;;11.83;100.00;102475.47;3983568;29;20042;-76
2023/01/05 04:46:27;;;;;;;24.15;4.13;;;12.60;99.90;;;11.82;100.00;102470.34;3982399;29;20035;-76
2023/01/05 04:48:30;;;;;;;22.67;4.53;;;12.60;99.90;;;11.82;100.00;102476.47;3983627;29;20153;-76
2023/01/05 04:50:32;;;;;;;22.67;4.30;;;12.70;99.90;;;11.81;100.00;102469.50;3985902;29;20399;-76
2023/01/05 04:52:33;;;;;;;27.67;4.55;;;12.60;99.90;;;11.82;100.00;102480.91;3982134;29;20027;-76
2023/01/05 04:54:34;;;;;;;19.05;5.15;;;12.60;99.90;;;11.79;100.00;102471.41;3987261;29;20086;-77
2023/01/05 04:56:35;;;;;;;24.35;4.47;;;12.60;99.90;;;11.80;100.00;102461.69;3981240;29;20066;-76
2023/01/05 04:58:36;;;;;;;24.48;4.38;;;12.60;99.90;;;11.81;100.00;102472.13;3983059;29;20042;-76
2023/01/05 05:00:37;;;;;;;24.67;4.35;;;12.60;99.90;;;11.82;100.00;102470.34;3981282;29;20088;-76
2023/01/05 05:02:39;;;;;;;29.40;5.32;;;12.60;99.90;;;11.79;100.00;102460.00;3982294;29;20194;-76
2023/01/05 05:04:39;;;;;;;26.45;4.50;;;12.60;99.90;;;11.80;100.00;102467.78;3969053;29;20032;-76
2023/01/05 05:06:40;;;;;;;30.75;4.25;;;12.60;99.90;;;11.83;100.00;102474.63;3980806;29;20543;-76
2023/01/05 05:08:41;;;;;;;20.20;4.45;;;12.60;99.90;;;11.79;100.00;102474.06;3982792;29;20034;-76
2023/01/05 05:10:42;;;;;;;28.15;4.93;;;12.60;99.90;;;11.80;100.00;102470.44;3982115;29;20035;-76
2023/01/05 05:12:43;;;;;;;29.90;5.40;;;12.60;99.90;;;11.80;100.00;102478.38;3982178;29;20023;-76
2023/01/05 05:14:44;;;;;;;29.58;3.92;;;12.60;99.90;;;11.78;100.00;102475.03;3983901;29;20022;-76
2023/01/05 05:16:45;;;;;;;25.65;4.32;;;12.60;99.90;;;11.80;100.00;102470.44;3981898;29;20042;-76
2023/01/05 05:18:46;;;;;;;29.58;5.15;;;12.60;99.90;;;11.79;100.00;102478.50;3985051;29;20023;-76
2023/01/05 05:20:50;;;;;;;29.05;4.72;;;12.60;99.90;;;11.77;100.00;102465.41;3989638;29;20063;-76
2023/01/05 05:22:51;;;;;;;28.50;3.92;;;12.60;99.90;;;11.78;100.00;102464.44;3981675;29;20038;-76
2023/01/05 05:24:52;;;;;;;23.80;4.30;;;12.60;99.90;;;11.77;100.00;102468.03;3991141;29;20039;-76
2023/01/05 05:26:53;;;;;;;32.35;7.05;;;12.60;99.90;;;11.80;100.00;102465.16;3965204;29;20096;-76
2023/01/05 05:28:56;;;;;;;28.58;4.03;;;12.60;99.90;;;11.77;100.00;102470.69;3985589;29;20506;-76
2023/01/05 05:30:57;;;;;;;33.60;6.15;;;12.60;99.90;;;11.76;100.00;102462.88;3999719;29;20061;-76
2023/01/05 05:32:58;;;;;;;22.23;5.80;;;12.60;99.90;;;11.75;100.00;102459.41;3981732;29;20027;-76
2023/01/05 05:34:58;;;;;;;17.10;3.30;;;12.60;99.90;;;11.75;100.00;102463.84;3989420;29;20121;-76
2023/01/05 05:36:59;;;;;;;15.95;3.72;;;12.60;99.90;;;11.76;100.00;102465.53;3980247;29;20033;-76
2023/01/05 05:39:00;;;;;;;19.33;4.22;;;12.60;99.90;;;11.73;100.00;102463.97;3984221;29;20039;-76
2023/01/05 05:53:08;;;;;;;12.85;2.13;;;12.50;99.90;;;11.90;100.00;102434.38;4249998;27;20378;-73
2023/01/05 05:55:09;;;;;;;8.57;1.35;;;12.60;99.90;;;11.82;100.00;102436.81;4214892;28;20040;-74
2023/01/05 05:57:10;;;;;;;8.27;1.60;;;12.60;99.90;;;11.71;100.00;102441.28;4214839;28;20024;-73
2023/01/05 05:59:11;;;;;;;7.45;1.65;;;12.50;99.90;;;11.69;100.00;102444.00;4214796;28;20028;-74
2023/01/05 06:01:12;;;;;;;10.45;2.67;;;12.50;99.90;;;11.66;100.00;102442.44;4232663;28;20024;-73
2023/01/05 06:03:13;;;;;;;11.48;2.92;;;12.50;99.90;;;11.61;100.00;102438.47;4232771;28;20028;-74
2023/01/05 06:05:14;;;;;;;11.23;1.77;;;12.50;99.90;;;11.56;100.00;102437.97;4214927;28;20024;-73
2023/01/05 06:07:15;;;;;;;18.13;2.45;;;12.40;99.90;;;11.53;100.00;102427.66;4232842;28;20107;-74
2023/01/05 06:09:16;;;;;;;11.57;2.35;;;12.30;99.90;;;11.43;100.00;102434.63;4232803;28;20031;-73
2023/01/05 06:11:17;;;;;;;10.90;1.88;;;12.30;99.90;;;11.36;100.00;102429.00;4214630;28;20032;-74
2023/01/05 06:13:18;;;;;;;15.88;3.45;;;12.20;99.90;;;11.25;100.00;102428.16;4214462;28;20036;-73
2023/01/05 06:15:19;;;;;;;13.27;2.70;;;12.10;99.90;;;11.24;100.00;102429.94;4214784;28;20029;-73
2023/01/05 06:17:21;;;;;;;10.43;1.95;;;12.10;99.90;;;11.14;100.00;102423.69;4226968;28;20032;-73
2023/01/05 06:19:22;;;;;;;8.35;2.13;;;12.00;99.90;;;11.10;100.00;102428.38;4211382;28;20040;-73
2023/01/05 06:21:23;;;;;;;11.98;2.45;;;12.00;99.90;;;11.05;100.00;102424.41;4219122;28;20490;-74
2023/01/05 06:23:24;;;;;;;11.70;1.80;;;11.90;99.90;;;10.96;100.00;102420.66;4233143;28;20059;-74
2023/01/05 06:25:25;;;;;;;11.98;1.67;;;11.80;99.90;;;11.01;100.00;102433.53;4232455;28;20030;-74
2023/01/05 06:27:26;;;;;;;9.52;1.67;;;11.80;99.90;;;10.94;100.00;102422.59;4214299;28;20024;-74
2023/01/05 06:29:26;;;;;;;14.82;2.20;;;11.70;99.90;;;10.88;100.00;102423.06;4232338;28;20546;-74
2023/01/05 06:31:27;;;;;;;11.70;1.90;;;11.70;99.90;;;10.81;100.00;102421.00;4232547;28;20031;-74
2023/01/05 06:33:28;;;;;;;10.00;1.73;;;11.70;99.90;;;10.79;100.00;102417.63;4214497;28;20058;-74
2023/01/05 06:35:29;;;;;;;11.85;2.22;;;11.60;99.90;;;10.74;100.00;102419.78;4214225;28;20028;-74
2023/01/05 06:37:30;;;;;;;12.05;2.13;;;11.60;99.90;;;10.67;100.00;102423.84;4214088;28;20028;-74
2023/01/05 06:39:31;;;;;;;8.80;1.70;;;11.50;99.90;;;10.63;100.00;102423.25;4232575;28;20134;-74
2023/01/05 06:41:34;;;;;;;12.10;2.65;;;11.50;99.90;;;10.52;100.00;102416.13;4232396;28;20020;-74
2023/01/05 06:43:34;;;;;;;11.65;1.90;;;11.40;99.90;;;10.54;100.00;102423.94;4197359;28;20462;-74
2023/01/05 06:45:35;;;;;;;11.23;2.55;;;11.40;99.90;;;10.56;100.00;102429.94;4231851;28;20024;-74
2023/01/05 06:47:36;;;;;;;13.45;2.05;;;11.40;99.90;;;10.50;100.00;102435.66;4228527;28;20027;-74
2023/01/05 06:49:37;;;;;;;11.75;1.52;;;11.40;99.90;;;10.47;100.00;102435.88;4220943;28;20059;-74
2023/01/05 06:51:39;;;;;;;8.15;1.70;;;11.30;99.90;;;10.49;100.00;102437.44;4232137;28;20043;-74
2023/01/05 06:53:40;;;;;;;11.93;1.88;;;11.30;99.90;;;10.49;100.00;102432.19;4223299;28;20482;-74
2023/01/05 06:55:41;;;;;;;19.05;2.22;;;11.30;99.90;;;10.50;100.00;102438.31;4220703;28;20039;-74
2023/01/05 06:57:41;;;;;;;9.40;1.52;;;11.30;99.90;;;10.47;100.00;102438.53;4220624;28;20502;-74
2023/01/05 06:59:42;;;;;;;6.38;1.38;;;11.30;99.90;;;10.41;100.00;102445.09;4220965;28;20039;-73
2023/01/05 07:01:43;;;;;;;11.75;1.70;;;11.30;99.90;;;10.38;100.00;102440.06;4202519;28;20031;-74
2023/01/05 07:03:44;;;;;;;14.98;2.58;;;11.20;99.90;;;10.32;100.00;102434.38;4220281;28;20036;-74
2023/01/05 07:05:45;;;;;;;11.95;1.70;;;11.20;99.90;;;10.29;100.00;102442.53;4202885;28;20020;-74
2023/01/05 07:07:46;;;;;;;10.32;1.50;;;11.10;99.90;;;10.31;100.00;102444.09;4220605;28;20081;-74
2023/01/05 07:09:48;;;;;;;7.10;1.60;;;11.10;99.90;;;10.29;100.00;102446.00;4219300;28;20024;-74
2023/01/05 07:11:49;;;;;;;14.48;2.03;;;11.20;99.90;;;10.34;100.00;102443.00;4218191;28;20055;-74
2023/01/05 07:13:50;;;;;;;8.82;2.17;;;11.20;99.90;;;10.37;100.00;102443.63;4220612;28;20367;-74
2023/01/05 07:15:50;;;;;;;8.90;1.13;;;11.20;99.90;;;10.42;100.00;102451.22;4202756;28;20036;-74
2023/01/05 07:17:51;;;;;;;6.07;1.15;;;11.20;99.90;;;10.39;100.00;102440.91;4220495;28;20048;-74
2023/01/05 07:19:52;;;;;;;12.23;2.35;;;11.20;99.90;;;10.41;100.00;102445.09;4207055;28;20028;-74
2023/01/05 07:21:53;;;;;;;12.68;1.65;;;11.30;99.90;;;10.47;100.00;102447.28;4220374;28;20031;-75
2023/01/05 07:23:54;;;;;;;7.15;1.70;;;11.30;99.90;;;10.54;100.00;102445.03;4220581;28;20028;-74
2023/01/05 07:25:58;;;;;;;15.48;1.88;;;11.40;99.90;;;10.50;100.00;102443.56;4220412;28;20028;-74
2023/01/05 07:27:59;;;;;;;8.32;1.30;;;11.40;99.90;;;10.53;100.00;102440.72;4202411;28;20052;-74
2023/01/05 07:30:00;;;;;;;7.40;1.30;;;11.40;99.90;;;10.54;100.00;102434.50;4220349;28;20552;-74
2023/01/05 07:32:01;;;;;;;8.65;1.55;;;11.40;99.90;;;10.52;100.00;102442.50;4220478;28;20035;-74
2023/01/05 07:34:01;;;;;;;18.70;1.85;;;11.30;99.90;;;10.53;100.00;102438.06;4202203;28;20060;-74
2023/01/05 07:36:04;;;;;;;7.53;1.35;;;11.40;99.90;;;10.50;100.00;102438.31;4220109;28;20031;-74
2023/01/05 07:38:05;;;;;;;13.73;1.67;;;11.30;99.90;;;10.46;100.00;102427.13;4202227;28;20024;-74
2023/01/05 07:40:06;;;;;;;9.75;2.65;;;11.30;99.90;;;10.44;100.00;102422.91;4220271;28;20039;-74
2023/01/05 07:42:07;;;;;;;11.63;1.85;;;11.30;99.90;;;10.42;100.00;102424.84;4219974;28;20024;-74
2023/01/05 07:44:08;;;;;;;13.25;1.50;;;11.30;99.90;;;10.42;100.00;102419.56;4219819;28;20035;-74
2023/01/05 07:46:09;;;;;;;7.07;1.60;;;11.30;99.90;;;10.44;100.00;102422.91;4201621;28;20070;-74
2023/01/05 07:48:10;;;;;;;8.77;2.25;;;11.30;99.90;;;10.47;100.00;102427.97;4202049;28;20507;-74
2023/01/05 07:50:11;;;;;;;14.13;2.08;;;11.30;99.90;;;10.48;100.00;102424.38;4202217;28;20056;-74
2023/01/05 07:52:12;;;;;;;10.65;1.48;;;11.30;99.90;;;10.49;100.00;102421.63;4219608;28;20039;-74
2023/01/05 07:54:14;;;;;;;11.98;1.52;;;11.30;99.90;;;10.52;100.00;102425.81;4218158;28;20408;-74
2023/01/05 07:56:15;;;;;;;10.93;2.63;;;11.30;99.90;;;10.51;100.00;102413.59;4219937;28;20025;-74
2023/01/05 07:58:16;;;;;;;13.98;2.70;;;11.40;99.90;;;10.53;100.00;102430.16;4214736;28;20383;-74
2023/01/05 08:00:17;;;;;;;11.77;2.35;;;11.40;99.90;;;10.52;100.00;102431.94;4219734;28;20035;-74
2023/01/05 08:02:18;;;;;;;22.45;4.18;;;11.40;99.90;;;10.53;100.00;102428.38;4201664;28;20036;-74
2023/01/05 08:04:19;;;;;;;9.73;2.78;;;11.40;99.90;;;10.53;100.00;102422.25;4201277;28;20087;-74
2023/01/05 08:06:20;;;;;;;15.48;1.75;;;11.40;99.90;;;10.54;100.00;102426.56;4219513;28;20028;-74
2023/01/05 08:08:22;;;;;;;15.27;2.70;;;11.40;99.90;;;10.52;100.00;102421.38;4201739;28;20024;-74
2023/01/05 08:10:28;;;;;;;17.02;3.30;;;11.40;99.90;;;10.52;100.00;102436.38;4201574;28;20044;-73
2023/01/05 08:12:29;;;;;;;29.15;3.42;;;11.40;99.90;;;10.48;100.00;102429.66;4219468;28;20031;-74
2023/01/05 08:14:30;;;;;;;12.48;2.22;;;11.30;99.90;;;10.45;100.00;102435.97;4219618;28;20028;-75
2023/01/05 08:16:32;;;;;;;18.27;3.17;;;11.30;99.90;;;10.42;100.00;102438.84;4201517;28;20016;-74
2023/01/05 08:18:33;;;;;;;30.35;3.70;;;11.30;99.90;;;10.38;100.00;102433.94;4201399;28;20090;-74
2023/01/05 08:20:34;;;;;;;25.63;3.90;;;11.20;99.90;;;10.39;100.00;102441.72;4184797;28;20072;-74
2023/01/05 08:22:35;;;;;;;21.00;3.80;;;11.20;99.90;;;10.39;100.00;102441.72;4201512;28;20029;-74
2023/01/05 08:24:36;;;;;;;23.13;4.75;;;11.20;99.90;;;10.40;100.00;102442.56;4219399;28;20020;-74
2023/01/05 08:26:37;;;;;;;30.13;4.30;;;11.20;99.90;;;10.38;100.00;102434.78;4219285;28;20024;-74
2023/01/05 08:28:39;;;;;;;19.63;3.88;;;11.20;99.90;;;10.36;100.00;102435.84;4201183;28;20055;-75
2023/01/05 08:30:40;;;;;;;20.08;3.50;;;11.20;99.90;;;10.43;100.00;102447.63;4201440;28;20491;-74
2023/01/05 08:32:41;;;;;;;19.85;3.33;;;11.30;99.90;;;10.51;100.00;102440.00;4201229;28;20024;-74
2023/01/05 08:34:42;;;;;;;21.40;3.83;;;11.30;99.90;;;10.59;100.00;102452.59;4184542;28;20112;-74
2023/01/05 08:36:43;;;;;;;28.33;4.50;;;11.30;99.90;;;10.65;100.00;102446.88;4219331;28;20031;-74
2023/01/05 08:38:47;;;;;;;14.95;4.50;;;11.40;99.90;;;10.70;100.00;102450.84;4201404;28;20036;-74
2023/01/05 08:40:48;;;;;;;;;;;11.50;99.90;;;10.69;100.00;102458.88;4212062;28;20032;-74
2023/01/05 08:42:49;;;;;;;23.17;5.90;;;11.50;99.90;;;10.71;100.00;102463.09;4202800;28;19913;-74
2023/01/05 08:44:50;;;;;;;18.52;4.68;;;11.60;99.90;;;10.74;100.00;102452.31;4201123;28;20043;-74
2023/01/05 08:46:51;;;;;;;25.88;5.22;;;11.60;99.90;;;10.83;100.00;102463.97;4217806;28;20031;-74
2023/01/05 08:48:55;;;;;;;18.80;3.22;;;11.60;99.90;;;10.88;100.00;102461.81;4201126;28;20483;-74
2023/01/05 08:51:06;;;;;;;16.52;2.92;;;11.70;99.90;;;10.94;100.00;102456.91;4200752;28;20063;-74
2023/01/05 08:53:07;;;;;;;13.93;2.70;;;11.80;99.90;;;10.99;100.00;102454.75;4234053;28;20031;-74
2023/01/05 08:55:08;;;;;;;17.85;3.20;;;11.80;99.90;;;11.07;100.00;102468.22;4218987;28;20483;-74
2023/01/05 08:57:09;;;;;;;18.60;2.88;;;11.90;99.90;;;11.13;100.00;102453.72;4218890;28;20024;-75
2023/01/05 08:59:13;;;;;;;21.73;4.25;;;11.90;99.90;;;11.14;100.00;102450.09;4218429;28;20411;-74
2023/01/05 09:01:17;;;;;;;20.38;3.30;;;12.00;99.90;;;11.17;100.00;102454.31;4203325;28;20029;-74
2023/01/05 09:03:19;;;;;;;17.23;3.20;;;12.00;99.90;;;11.26;100.00;102449.16;4201012;28;20111;-74
2023/01/05 09:05:19;;;;;;;12.10;2.88;;;12.10;99.90;;;11.26;100.00;102429.84;4218957;28;20030;-74
2023/01/05 09:07:21;;;;;;;17.05;3.92;;;12.10;99.90;;;11.43;100.00;102439.94;4218806;28;20383;-74